sensor_id;sensor_type;location;lat;lon;timestamp;pressure;altitude;pressure_sealevel;temperature;humidity
9538;BME280;4807;48.024;11.726;2022-12-07T00:00:11;94892.63;;;2.60;84.95
9538;BME280;4807;48.024;11.726;2022-12-07T00:03:19;94891.34;;;2.64;84.75
9538;BME280;4807;48.024;11.726;2022-12-07T00:06:28;94888.13;;;2.52;84.90
9538;BME280;4807;48.024;11.726;2022-12-07T00:09:37;94899.53;;;2.61;84.68
9538;BME280;4807;48.024;11.726;2022-12-07T00:12:46;94888.19;;;2.60;84.75
9538;BME280;4807;48.024;11.726;2022-12-07T00:16:00;94891.81;;;2.59;84.21
9538;BME280;4807;48.024;11.726;2022-12-07T00:19:11;94895.41;;;2.58;85.15
9538;BME280;4807;48.024;11.726;2022-12-07T00:22:20;94886.03;;;2.56;84.33
9538;BME280;4807;48.024;11.726;2022-12-07T00:25:30;94882.44;;;2.57;84.64
9538;BME280;4807;48.024;11.726;2022-12-07T00:28:39;94880.91;;;2.54;84.98
9538;BME280;4807;48.024;11.726;2022-12-07T00:31:49;94885.81;;;2.49;84.99
9538;BME280;4807;48.024;11.726;2022-12-07T00:34:57;94887.63;;;2.49;84.80
9538;BME280;4807;48.024;11.726;2022-12-07T00:38:06;94886.66;;;2.50;84.76
9538;BME280;4807;48.024;11.726;2022-12-07T00:41:17;94884.84;;;2.50;85.07
9538;BME280;4807;48.024;11.726;2022-12-07T00:44:25;94888.59;;;2.48;85.15
9538;BME280;4807;48.024;11.726;2022-12-07T00:47:35;94883.34;;;2.48;85.13
9538;BME280;4807;48.024;11.726;2022-12-07T00:50:44;94884.94;;;2.41;86.03
9538;BME280;4807;48.024;11.726;2022-12-07T00:53:53;94881.69;;;2.47;85.16
9538;BME280;4807;48.024;11.726;2022-12-07T00:57:01;94887.09;;;2.45;84.98
9538;BME280;4807;48.024;11.726;2022-12-07T01:00:10;94886.13;;;2.46;85.28
9538;BME280;4807;48.024;11.726;2022-12-07T01:03:20;94895.44;;;2.41;84.65
9538;BME280;4807;48.024;11.726;2022-12-07T01:06:29;94879.34;;;2.44;84.96
9538;BME280;4807;48.024;11.726;2022-12-07T01:09:38;94877.06;;;2.41;85.14
9538;BME280;4807;48.024;11.726;2022-12-07T01:12:46;94877.50;;;2.36;85.84
9538;BME280;4807;48.024;11.726;2022-12-07T01:15:58;94880.66;;;2.40;84.88
9538;BME280;4807;48.024;11.726;2022-12-07T01:19:09;94876.38;;;2.39;85.47
9538;BME280;4807;48.024;11.726;2022-12-07T01:22:17;94880.19;;;2.44;84.63
9538;BME280;4807;48.024;11.726;2022-12-07T01:25:25;94886.75;;;2.40;84.68
9538;BME280;4807;48.024;11.726;2022-12-07T01:28:34;94881.91;;;2.36;85.00
9538;BME280;4807;48.024;11.726;2022-12-07T01:31:42;94880.84;;;2.46;84.27
9538;BME280;4807;48.024;11.726;2022-12-07T01:34:52;94885.56;;;2.35;84.90
9538;BME280;4807;48.024;11.726;2022-12-07T01:38:01;94884.78;;;2.42;84.75
9538;BME280;4807;48.024;11.726;2022-12-07T01:41:10;94882.81;;;2.44;84.08
9538;BME280;4807;48.024;11.726;2022-12-07T01:44:23;94880.81;;;2.38;83.94
9538;BME280;4807;48.024;11.726;2022-12-07T01:47:32;94872.56;;;2.33;83.63
9538;BME280;4807;48.024;11.726;2022-12-07T01:50:43;94867.75;;;2.28;84.17
9538;BME280;4807;48.024;11.726;2022-12-07T01:53:53;94876.59;;;2.27;84.14
9538;BME280;4807;48.024;11.726;2022-12-07T01:57:04;94880.59;;;2.14;84.97
9538;BME280;4807;48.024;11.726;2022-12-07T02:00:16;94871.91;;;2.13;85.72
9538;BME280;4807;48.024;11.726;2022-12-07T02:03:32;94875.00;;;2.09;85.93
9538;BME280;4807;48.024;11.726;2022-12-07T02:06:44;94882.53;;;2.12;84.82
9538;BME280;4807;48.024;11.726;2022-12-07T02:09:53;94877.59;;;2.26;84.85
9538;BME280;4807;48.024;11.726;2022-12-07T02:13:07;94874.16;;;2.26;84.66
9538;BME280;4807;48.024;11.726;2022-12-07T02:16:29;94872.09;;;2.20;85.51
9538;BME280;4807;48.024;11.726;2022-12-07T02:20:15;94868.38;;;2.22;84.98
9538;BME280;4807;48.024;11.726;2022-12-07T02:24:14;94868.50;;;2.21;85.27
9538;BME280;4807;48.024;11.726;2022-12-07T02:27:45;94862.19;;;2.32;84.22
9538;BME280;4807;48.024;11.726;2022-12-07T02:31:04;94861.66;;;2.28;84.06
9538;BME280;4807;48.024;11.726;2022-12-07T02:34:24;94862.88;;;2.34;84.44
9538;BME280;4807;48.024;11.726;2022-12-07T02:37:42;94863.53;;;2.36;83.85
9538;BME280;4807;48.024;11.726;2022-12-07T02:40:55;94856.81;;;2.33;84.62
9538;BME280;4807;48.024;11.726;2022-12-07T02:44:10;94861.16;;;2.24;84.91
9538;BME280;4807;48.024;11.726;2022-12-07T02:47:24;94859.44;;;2.33;84.05
9538;BME280;4807;48.024;11.726;2022-12-07T02:50:32;94851.91;;;2.38;83.88
9538;BME280;4807;48.024;11.726;2022-12-07T02:53:43;94855.16;;;2.32;83.90
9538;BME280;4807;48.024;11.726;2022-12-07T02:57:02;94854.13;;;2.25;83.90
9538;BME280;4807;48.024;11.726;2022-12-07T03:00:18;94858.00;;;2.21;84.45
9538;BME280;4807;48.024;11.726;2022-12-07T03:03:29;94855.28;;;2.30;83.97
9538;BME280;4807;48.024;11.726;2022-12-07T03:06:49;94853.13;;;2.26;84.27
9538;BME280;4807;48.024;11.726;2022-12-07T03:10:03;94852.22;;;2.35;84.01
9538;BME280;4807;48.024;11.726;2022-12-07T03:13:22;94858.06;;;2.29;84.27
9538;BME280;4807;48.024;11.726;2022-12-07T03:16:37;94858.69;;;2.23;84.59
9538;BME280;4807;48.024;11.726;2022-12-07T03:19:56;94852.75;;;2.21;84.89
9538;BME280;4807;48.024;11.726;2022-12-07T03:23:09;94853.28;;;2.24;84.36
9538;BME280;4807;48.024;11.726;2022-12-07T03:26:21;94846.22;;;2.25;84.88
9538;BME280;4807;48.024;11.726;2022-12-07T03:29:39;94845.56;;;2.23;84.72
9538;BME280;4807;48.024;11.726;2022-12-07T03:32:58;94849.31;;;2.20;84.77
9538;BME280;4807;48.024;11.726;2022-12-07T03:36:14;94845.03;;;2.19;85.41
9538;BME280;4807;48.024;11.726;2022-12-07T03:39:30;94845.19;;;2.18;85.90
9538;BME280;4807;48.024;11.726;2022-12-07T03:42:42;94843.97;;;2.30;84.84
9538;BME280;4807;48.024;11.726;2022-12-07T03:46:04;94841.59;;;2.19;85.19
9538;BME280;4807;48.024;11.726;2022-12-07T03:49:23;94839.63;;;2.21;85.75
9538;BME280;4807;48.024;11.726;2022-12-07T03:52:40;94845.41;;;2.24;85.72
9538;BME280;4807;48.024;11.726;2022-12-07T03:55:52;94839.63;;;2.21;84.91
9538;BME280;4807;48.024;11.726;2022-12-07T03:59:02;94836.56;;;2.25;85.38
9538;BME280;4807;48.024;11.726;2022-12-07T04:02:13;94835.84;;;2.41;84.54
9538;BME280;4807;48.024;11.726;2022-12-07T04:05:22;94837.09;;;2.37;84.87
9538;BME280;4807;48.024;11.726;2022-12-07T04:08:32;94831.94;;;2.27;85.60
9538;BME280;4807;48.024;11.726;2022-12-07T04:11:40;94836.28;;;2.37;84.84
9538;BME280;4807;48.024;11.726;2022-12-07T04:14:49;94821.00;;;2.32;85.49
9538;BME280;4807;48.024;11.726;2022-12-07T04:17:57;94830.81;;;2.30;85.54
9538;BME280;4807;48.024;11.726;2022-12-07T04:21:06;94832.69;;;2.38;85.11
9538;BME280;4807;48.024;11.726;2022-12-07T04:24:16;94830.97;;;2.28;85.26
9538;BME280;4807;48.024;11.726;2022-12-07T04:27:24;94829.06;;;2.13;84.99
9538;BME280;4807;48.024;11.726;2022-12-07T04:30:32;94840.84;;;2.09;85.95
9538;BME280;4807;48.024;11.726;2022-12-07T04:33:41;94834.63;;;2.10;85.90
9538;BME280;4807;48.024;11.726;2022-12-07T04:36:49;94834.63;;;2.10;86.36
9538;BME280;4807;48.024;11.726;2022-12-07T04:39:59;94836.28;;;2.11;86.35
9538;BME280;4807;48.024;11.726;2022-12-07T04:43:08;94840.16;;;2.07;86.76
9538;BME280;4807;48.024;11.726;2022-12-07T04:46:16;94841.97;;;2.06;87.22
9538;BME280;4807;48.024;11.726;2022-12-07T04:49:25;94834.38;;;2.21;85.79
9538;BME280;4807;48.024;11.726;2022-12-07T04:52:34;94837.31;;;2.18;85.83
9538;BME280;4807;48.024;11.726;2022-12-07T04:55:44;94842.25;;;2.03;86.56
9538;BME280;4807;48.024;11.726;2022-12-07T04:58:53;94824.63;;;2.13;86.44
9538;BME280;4807;48.024;11.726;2022-12-07T05:02:02;94829.72;;;2.15;86.50
9538;BME280;4807;48.024;11.726;2022-12-07T05:05:11;94831.94;;;2.27;86.47
9538;BME280;4807;48.024;11.726;2022-12-07T05:08:19;94829.66;;;2.24;86.21
9538;BME280;4807;48.024;11.726;2022-12-07T05:11:29;94832.41;;;2.23;85.45
9538;BME280;4807;48.024;11.726;2022-12-07T05:14:47;94836.03;;;2.22;85.52
9538;BME280;4807;48.024;11.726;2022-12-07T05:17:55;94829.19;;;2.11;86.34
9538;BME280;4807;48.024;11.726;2022-12-07T05:21:04;94835.59;;;2.09;86.71
9538;BME280;4807;48.024;11.726;2022-12-07T05:24:14;94836.56;;;2.08;86.40
9538;BME280;4807;48.024;11.726;2022-12-07T05:27:24;94827.03;;;2.07;86.24
9538;BME280;4807;48.024;11.726;2022-12-07T05:30:32;94841.22;;;1.96;86.65
9538;BME280;4807;48.024;11.726;2022-12-07T05:33:41;94839.06;;;1.91;86.69
9538;BME280;4807;48.024;11.726;2022-12-07T05:36:49;94832.38;;;1.79;87.02
9538;BME280;4807;48.024;11.726;2022-12-07T05:39:58;94832.63;;;1.68;87.40
9538;BME280;4807;48.024;11.726;2022-12-07T05:43:08;94839.66;;;1.50;88.24
9538;BME280;4807;48.024;11.726;2022-12-07T05:46:16;94834.69;;;1.47;87.95
9538;BME280;4807;48.024;11.726;2022-12-07T05:49:25;94836.66;;;1.45;88.77
9538;BME280;4807;48.024;11.726;2022-12-07T05:52:33;94849.38;;;1.40;88.61
9538;BME280;4807;48.024;11.726;2022-12-07T05:55:43;94842.09;;;1.34;88.20
9538;BME280;4807;48.024;11.726;2022-12-07T05:58:53;94834.19;;;1.43;88.63
9538;BME280;4807;48.024;11.726;2022-12-07T06:02:19;94840.25;;;1.44;88.32
9538;BME280;4807;48.024;11.726;2022-12-07T06:05:27;94840.69;;;1.57;88.52
9538;BME280;4807;48.024;11.726;2022-12-07T06:08:35;94853.72;;;1.49;88.39
9538;BME280;4807;48.024;11.726;2022-12-07T06:11:44;94849.25;;;1.59;88.79
9538;BME280;4807;48.024;11.726;2022-12-07T06:15:12;94850.09;;;1.77;87.78
9538;BME280;4807;48.024;11.726;2022-12-07T06:18:20;94850.84;;;1.70;88.08
9538;BME280;4807;48.024;11.726;2022-12-07T06:21:29;94857.16;;;1.77;87.34
9538;BME280;4807;48.024;11.726;2022-12-07T06:24:38;94858.53;;;1.71;87.10
9538;BME280;4807;48.024;11.726;2022-12-07T06:27:47;94862.69;;;1.74;87.17
9538;BME280;4807;48.024;11.726;2022-12-07T06:30:59;94863.72;;;1.81;86.13
9538;BME280;4807;48.024;11.726;2022-12-07T06:34:11;94865.09;;;1.85;86.57
9538;BME280;4807;48.024;11.726;2022-12-07T06:37:20;94864.63;;;1.89;86.69
9538;BME280;4807;48.024;11.726;2022-12-07T06:40:28;94860.34;;;1.88;86.12
9538;BME280;4807;48.024;11.726;2022-12-07T06:43:37;94868.69;;;1.84;86.46
9538;BME280;4807;48.024;11.726;2022-12-07T06:46:48;94861.66;;;1.84;85.83
9538;BME280;4807;48.024;11.726;2022-12-07T06:49:56;94866.00;;;1.76;86.45
9538;BME280;4807;48.024;11.726;2022-12-07T06:53:05;94867.31;;;1.80;86.16
9538;BME280;4807;48.024;11.726;2022-12-07T06:56:13;94867.41;;;1.70;86.96
9538;BME280;4807;48.024;11.726;2022-12-07T06:59:22;94869.53;;;1.84;85.95
9538;BME280;4807;48.024;11.726;2022-12-07T07:02:32;94875.38;;;1.78;85.66
9538;BME280;4807;48.024;11.726;2022-12-07T07:05:40;94871.97;;;1.68;86.57
9538;BME280;4807;48.024;11.726;2022-12-07T07:08:50;94880.16;;;1.65;86.61
9538;BME280;4807;48.024;11.726;2022-12-07T07:11:58;94880.16;;;1.65;86.80
9538;BME280;4807;48.024;11.726;2022-12-07T07:15:08;94888.69;;;1.67;87.20
9538;BME280;4807;48.024;11.726;2022-12-07T07:18:18;94887.88;;;1.67;88.08
9538;BME280;4807;48.024;11.726;2022-12-07T07:21:27;94890.81;;;1.81;87.76
9538;BME280;4807;48.024;11.726;2022-12-07T07:24:35;94891.19;;;1.86;86.00
9538;BME280;4807;48.024;11.726;2022-12-07T07:27:44;94894.88;;;1.94;86.50
9538;BME280;4807;48.024;11.726;2022-12-07T07:30:52;94887.38;;;1.99;85.70
9538;BME280;4807;48.024;11.726;2022-12-07T07:34:02;94880.47;;;1.98;85.67
9538;BME280;4807;48.024;11.726;2022-12-07T07:37:10;94896.06;;;1.99;85.28
9538;BME280;4807;48.024;11.726;2022-12-07T07:40:28;94898.91;;;2.06;85.05
9538;BME280;4807;48.024;11.726;2022-12-07T07:43:37;94899.53;;;2.00;85.57
9538;BME280;4807;48.024;11.726;2022-12-07T07:46:45;94900.03;;;2.03;85.27
9538;BME280;4807;48.024;11.726;2022-12-07T07:49:55;94895.69;;;2.12;85.73
9538;BME280;4807;48.024;11.726;2022-12-07T07:53:04;94900.28;;;2.10;84.83
9538;BME280;4807;48.024;11.726;2022-12-07T07:56:12;94902.97;;;2.18;84.72
9538;BME280;4807;48.024;11.726;2022-12-07T07:59:20;94906.94;;;2.22;84.75
9538;BME280;4807;48.024;11.726;2022-12-07T08:02:29;94905.97;;;2.23;84.24
9538;BME280;4807;48.024;11.726;2022-12-07T08:05:39;94901.41;;;2.25;84.16
9538;BME280;4807;48.024;11.726;2022-12-07T08:08:47;94903.28;;;2.15;84.33
9538;BME280;4807;48.024;11.726;2022-12-07T08:11:55;94898.38;;;2.20;84.51
9538;BME280;4807;48.024;11.726;2022-12-07T08:15:05;94910.03;;;2.17;83.48
9538;BME280;4807;48.024;11.726;2022-12-07T08:18:15;94915.13;;;2.19;84.15
9538;BME280;4807;48.024;11.726;2022-12-07T08:21:25;94907.69;;;2.32;84.59
9538;BME280;4807;48.024;11.726;2022-12-07T08:24:33;94916.97;;;2.44;83.98
9538;BME280;4807;48.024;11.726;2022-12-07T08:27:42;94915.28;;;2.61;83.47
9538;BME280;4807;48.024;11.726;2022-12-07T08:30:50;94914.53;;;2.68;83.12
9538;BME280;4807;48.024;11.726;2022-12-07T08:33:59;94911.59;;;2.72;81.73
9538;BME280;4807;48.024;11.726;2022-12-07T08:37:09;94908.38;;;2.60;82.42
9538;BME280;4807;48.024;11.726;2022-12-07T08:40:17;94912.84;;;2.59;82.61
9538;BME280;4807;48.024;11.726;2022-12-07T08:43:28;94907.63;;;2.67;80.93
9538;BME280;4807;48.024;11.726;2022-12-07T08:46:39;94907.78;;;2.66;81.56
9538;BME280;4807;48.024;11.726;2022-12-07T08:49:52;94906.03;;;2.75;81.05
9538;BME280;4807;48.024;11.726;2022-12-07T08:53:04;94916.28;;;2.86;80.76
9538;BME280;4807;48.024;11.726;2022-12-07T08:56:13;94908.94;;;2.89;80.79
9538;BME280;4807;48.024;11.726;2022-12-07T08:59:23;94906.16;;;2.91;79.60
9538;BME280;4807;48.024;11.726;2022-12-07T09:02:31;94915.88;;;2.98;80.09
9538;BME280;4807;48.024;11.726;2022-12-07T09:05:40;94907.31;;;2.96;80.00
9538;BME280;4807;48.024;11.726;2022-12-07T09:08:53;94913.75;;;3.02;80.28
9538;BME280;4807;48.024;11.726;2022-12-07T09:12:03;94917.06;;;3.04;80.27
9538;BME280;4807;48.024;11.726;2022-12-07T09:15:12;94909.38;;;3.11;79.95
9538;BME280;4807;48.024;11.726;2022-12-07T09:18:20;94909.81;;;3.32;80.16
9538;BME280;4807;48.024;11.726;2022-12-07T09:21:29;94902.75;;;2.98;79.59
9538;BME280;4807;48.024;11.726;2022-12-07T09:24:39;94910.31;;;3.35;78.90
9538;BME280;4807;48.024;11.726;2022-12-07T09:27:47;94906.72;;;3.44;79.18
9538;BME280;4807;48.024;11.726;2022-12-07T09:30:56;94906.72;;;3.44;78.86
9538;BME280;4807;48.024;11.726;2022-12-07T09:34:24;94901.38;;;3.62;78.43
9538;BME280;4807;48.024;11.726;2022-12-07T09:37:33;94899.69;;;3.53;77.65
9538;BME280;4807;48.024;11.726;2022-12-07T09:40:46;94899.03;;;3.51;78.67
9538;BME280;4807;48.024;11.726;2022-12-07T09:44:04;94891.19;;;3.67;78.42
9538;BME280;4807;48.024;11.726;2022-12-07T09:47:12;94891.94;;;3.52;76.97
9538;BME280;4807;48.024;11.726;2022-12-07T09:50:23;94884.75;;;3.20;78.10
9538;BME280;4807;48.024;11.726;2022-12-07T09:53:36;94891.84;;;3.27;78.12
9538;BME280;4807;48.024;11.726;2022-12-07T09:56:46;94882.69;;;3.31;78.16
9538;BME280;4807;48.024;11.726;2022-12-07T09:59:57;94886.00;;;3.50;78.97
9538;BME280;4807;48.024;11.726;2022-12-07T10:03:12;94887.72;;;3.67;77.25
9538;BME280;4807;48.024;11.726;2022-12-07T10:06:21;94875.34;;;3.59;76.98
9538;BME280;4807;48.024;11.726;2022-12-07T10:09:29;94871.66;;;3.86;76.56
9538;BME280;4807;48.024;11.726;2022-12-07T10:13:02;94872.34;;;3.96;75.32
9538;BME280;4807;48.024;11.726;2022-12-07T10:16:39;94877.41;;;3.90;75.96
9538;BME280;4807;48.024;11.726;2022-12-07T10:19:48;94876.94;;;3.94;74.36
9538;BME280;4807;48.024;11.726;2022-12-07T10:23:00;94877.56;;;3.80;74.96
9538;BME280;4807;48.024;11.726;2022-12-07T10:26:26;94864.88;;;3.75;75.33
9538;BME280;4807;48.024;11.726;2022-12-07T10:29:39;94869.00;;;3.86;74.73
9538;BME280;4807;48.024;11.726;2022-12-07T10:32:47;94867.06;;;3.96;75.00
9538;BME280;4807;48.024;11.726;2022-12-07T10:35:56;94866.88;;;4.06;74.00
9538;BME280;4807;48.024;11.726;2022-12-07T10:39:13;94878.63;;;4.19;74.91
9538;BME280;4807;48.024;11.726;2022-12-07T10:42:24;94866.41;;;4.02;74.59
9538;BME280;4807;48.024;11.726;2022-12-07T10:45:41;94867.41;;;4.09;74.75
9538;BME280;4807;48.024;11.726;2022-12-07T10:49:46;94864.91;;;4.00;74.07
9538;BME280;4807;48.024;11.726;2022-12-07T10:53:38;94870.03;;;4.09;74.81
9538;BME280;4807;48.024;11.726;2022-12-07T10:57:07;94859.81;;;4.14;74.91
9538;BME280;4807;48.024;11.726;2022-12-07T11:00:21;94860.00;;;4.21;74.68
9538;BME280;4807;48.024;11.726;2022-12-07T11:03:49;94852.72;;;3.91;74.92
9538;BME280;4807;48.024;11.726;2022-12-07T11:07:12;94850.59;;;3.86;74.96
9538;BME280;4807;48.024;11.726;2022-12-07T11:10:35;94850.22;;;3.65;75.23
9538;BME280;4807;48.024;11.726;2022-12-07T11:13:54;94844.47;;;3.69;75.27
9538;BME280;4807;48.024;11.726;2022-12-07T11:17:12;94846.59;;;3.74;76.02
9538;BME280;4807;48.024;11.726;2022-12-07T11:20:41;94843.00;;;3.91;77.78
9538;BME280;4807;48.024;11.726;2022-12-07T11:24:01;94833.44;;;3.82;75.84
9538;BME280;4807;48.024;11.726;2022-12-07T11:27:24;94821.72;;;3.52;75.38
9538;BME280;4807;48.024;11.726;2022-12-07T11:30:42;94823.22;;;3.63;76.81
9538;BME280;4807;48.024;11.726;2022-12-07T11:33:58;94819.06;;;3.44;75.77
9538;BME280;4807;48.024;11.726;2022-12-07T11:37:16;94824.81;;;3.39;76.31
9538;BME280;4807;48.024;11.726;2022-12-07T11:40:30;94828.81;;;3.60;76.20
9538;BME280;4807;48.024;11.726;2022-12-07T11:43:54;94817.31;;;3.69;76.25
9538;BME280;4807;48.024;11.726;2022-12-07T11:47:09;94813.00;;;3.60;76.26
9538;BME280;4807;48.024;11.726;2022-12-07T11:50:30;94814.00;;;3.67;76.83
9538;BME280;4807;48.024;11.726;2022-12-07T11:53:47;94809.59;;;3.83;75.98
9538;BME280;4807;48.024;11.726;2022-12-07T11:57:04;94811.41;;;3.91;75.63
9538;BME280;4807;48.024;11.726;2022-12-07T12:00:18;94808.91;;;3.81;75.10
9538;BME280;4807;48.024;11.726;2022-12-07T12:03:34;94792.47;;;3.63;76.21
9538;BME280;4807;48.024;11.726;2022-12-07T12:06:46;94799.13;;;3.41;76.32
9538;BME280;4807;48.024;11.726;2022-12-07T12:10:02;94792.94;;;3.59;78.18
9538;BME280;4807;48.024;11.726;2022-12-07T12:13:50;94787.81;;;3.49;76.45
9538;BME280;4807;48.024;11.726;2022-12-07T12:17:56;94784.13;;;3.26;76.64
9538;BME280;4807;48.024;11.726;2022-12-07T12:21:12;94781.66;;;3.16;77.21
9538;BME280;4807;48.024;11.726;2022-12-07T12:24:29;94784.66;;;3.37;77.23
9538;BME280;4807;48.024;11.726;2022-12-07T12:27:46;94782.22;;;3.44;76.94
9538;BME280;4807;48.024;11.726;2022-12-07T12:31:12;94786.00;;;3.50;77.53
9538;BME280;4807;48.024;11.726;2022-12-07T12:34:37;94777.06;;;3.26;76.58
9538;BME280;4807;48.024;11.726;2022-12-07T12:37:55;94778.25;;;3.32;77.03
9538;BME280;4807;48.024;11.726;2022-12-07T12:41:58;94776.44;;;3.24;76.45
9538;BME280;4807;48.024;11.726;2022-12-07T12:45:22;94768.19;;;3.27;77.12
9538;BME280;4807;48.024;11.726;2022-12-07T12:48:36;94774.00;;;3.47;77.25
9538;BME280;4807;48.024;11.726;2022-12-07T12:51:47;94777.13;;;3.51;76.13
9538;BME280;4807;48.024;11.726;2022-12-07T12:55:00;94771.03;;;3.50;75.70
9538;BME280;4807;48.024;11.726;2022-12-07T12:58:40;94762.25;;;3.25;76.34
9538;BME280;4807;48.024;11.726;2022-12-07T13:01:56;94761.25;;;3.18;76.89
9538;BME280;4807;48.024;11.726;2022-12-07T13:05:19;94764.91;;;3.33;76.50
9538;BME280;4807;48.024;11.726;2022-12-07T13:08:28;94760.47;;;3.34;76.09
9538;BME280;4807;48.024;11.726;2022-12-07T13:11:45;94763.47;;;3.39;76.01
9538;BME280;4807;48.024;11.726;2022-12-07T13:14:59;94765.72;;;3.34;76.41
9538;BME280;4807;48.024;11.726;2022-12-07T13:18:27;94754.06;;;3.28;76.76
9538;BME280;4807;48.024;11.726;2022-12-07T13:21:43;94763.63;;;3.37;77.15
9538;BME280;4807;48.024;11.726;2022-12-07T13:24:56;94750.47;;;3.54;76.83
9538;BME280;4807;48.024;11.726;2022-12-07T13:28:15;94744.41;;;3.69;75.18
9538;BME280;4807;48.024;11.726;2022-12-07T13:31:33;94749.16;;;3.66;75.92
9538;BME280;4807;48.024;11.726;2022-12-07T13:34:42;94747.19;;;3.68;76.10
9538;BME280;4807;48.024;11.726;2022-12-07T13:37:51;94742.75;;;3.68;75.70
9538;BME280;4807;48.024;11.726;2022-12-07T13:41:11;94746.88;;;3.71;75.84
9538;BME280;4807;48.024;11.726;2022-12-07T13:44:21;94749.69;;;3.77;75.50
9538;BME280;4807;48.024;11.726;2022-12-07T13:47:36;94746.38;;;3.83;76.07
9538;BME280;4807;48.024;11.726;2022-12-07T13:50:54;94740.63;;;3.72;76.22
9538;BME280;4807;48.024;11.726;2022-12-07T13:54:11;94739.81;;;3.79;76.23
9538;BME280;4807;48.024;11.726;2022-12-07T13:57:20;94738.97;;;3.79;75.13
9538;BME280;4807;48.024;11.726;2022-12-07T14:00:30;94738.63;;;3.74;75.83
9538;BME280;4807;48.024;11.726;2022-12-07T14:03:39;94736.00;;;3.58;75.13
9538;BME280;4807;48.024;11.726;2022-12-07T14:06:50;94744.91;;;3.49;76.19
9538;BME280;4807;48.024;11.726;2022-12-07T14:10:01;94747.53;;;3.57;75.55
9538;BME280;4807;48.024;11.726;2022-12-07T14:13:30;94739.13;;;3.53;76.30
9538;BME280;4807;48.024;11.726;2022-12-07T14:16:40;94738.63;;;3.58;76.43
9538;BME280;4807;48.024;11.726;2022-12-07T14:19:53;94746.88;;;3.55;76.91
9538;BME280;4807;48.024;11.726;2022-12-07T14:23:03;94738.63;;;3.66;76.33
9538;BME280;4807;48.024;11.726;2022-12-07T14:26:20;94736.34;;;3.55;76.89
9538;BME280;4807;48.024;11.726;2022-12-07T14:29:32;94741.44;;;3.48;76.56
9538;BME280;4807;48.024;11.726;2022-12-07T14:32:41;94740.25;;;3.42;76.66
9538;BME280;4807;48.024;11.726;2022-12-07T14:35:56;94739.25;;;3.27;76.65
9538;BME280;4807;48.024;11.726;2022-12-07T14:39:05;94739.72;;;3.15;77.01
9538;BME280;4807;48.024;11.726;2022-12-07T14:42:20;94741.19;;;3.09;77.37
9538;BME280;4807;48.024;11.726;2022-12-07T14:45:29;94734.44;;;3.06;77.52
9538;BME280;4807;48.024;11.726;2022-12-07T14:48:38;94732.44;;;3.00;77.72
9538;BME280;4807;48.024;11.726;2022-12-07T14:52:15;94726.16;;;2.93;77.32
9538;BME280;4807;48.024;11.726;2022-12-07T14:55:44;94730.09;;;2.81;77.94
9538;BME280;4807;48.024;11.726;2022-12-07T14:58:53;94729.47;;;2.53;78.66
9538;BME280;4807;48.024;11.726;2022-12-07T15:02:03;94720.88;;;2.35;79.93
9538;BME280;4807;48.024;11.726;2022-12-07T15:05:12;94721.91;;;2.16;80.35
9538;BME280;4807;48.024;11.726;2022-12-07T15:08:24;94718.00;;;1.95;80.76
9538;BME280;4807;48.024;11.726;2022-12-07T15:11:32;94722.88;;;1.89;80.74
9538;BME280;4807;48.024;11.726;2022-12-07T15:14:45;94722.53;;;1.84;81.73
9538;BME280;4807;48.024;11.726;2022-12-07T15:17:53;94722.53;;;1.84;81.95
9538;BME280;4807;48.024;11.726;2022-12-07T15:21:02;94717.53;;;1.56;82.96
9538;BME280;4807;48.024;11.726;2022-12-07T15:24:12;94712.53;;;1.44;82.85
9538;BME280;4807;48.024;11.726;2022-12-07T15:27:20;94712.69;;;1.43;82.55
9538;BME280;4807;48.024;11.726;2022-12-07T15:30:29;94714.19;;;1.28;83.80
9538;BME280;4807;48.024;11.726;2022-12-07T15:33:38;94724.34;;;1.31;83.07
9538;BME280;4807;48.024;11.726;2022-12-07T15:36:46;94726.09;;;1.22;82.98
9538;BME280;4807;48.024;11.726;2022-12-07T15:39:56;94718.69;;;1.18;83.13
9538;BME280;4807;48.024;11.726;2022-12-07T15:43:13;94712.31;;;1.20;83.61
9538;BME280;4807;48.024;11.726;2022-12-07T15:46:38;94721.13;;;1.01;83.97
9538;BME280;4807;48.024;11.726;2022-12-07T15:49:47;94721.88;;;0.94;84.88
9538;BME280;4807;48.024;11.726;2022-12-07T15:52:55;94720.91;;;0.95;85.26
9538;BME280;4807;48.024;11.726;2022-12-07T15:56:08;94724.94;;;1.07;84.61
9538;BME280;4807;48.024;11.726;2022-12-07T15:59:17;94720.59;;;0.98;85.33
9538;BME280;4807;48.024;11.726;2022-12-07T16:02:25;94714.94;;;1.02;85.44
9538;BME280;4807;48.024;11.726;2022-12-07T16:05:34;94713.63;;;1.06;85.32
9538;BME280;4807;48.024;11.726;2022-12-07T16:08:43;94716.66;;;1.11;84.65
9538;BME280;4807;48.024;11.726;2022-12-07T16:11:53;94717.25;;;1.05;85.27
9538;BME280;4807;48.024;11.726;2022-12-07T16:15:01;94717.63;;;1.10;84.78
9538;BME280;4807;48.024;11.726;2022-12-07T16:18:11;94714.31;;;1.08;85.16
9538;BME280;4807;48.024;11.726;2022-12-07T16:21:20;94717.78;;;1.09;84.06
9538;BME280;4807;48.024;11.726;2022-12-07T16:24:32;94714.03;;;1.11;83.97
9538;BME280;4807;48.024;11.726;2022-12-07T16:27:41;94713.06;;;1.12;84.75
9538;BME280;4807;48.024;11.726;2022-12-07T16:31:01;94704.81;;;1.07;84.86
9538;BME280;4807;48.024;11.726;2022-12-07T16:34:10;94705.25;;;1.03;84.49
9538;BME280;4807;48.024;11.726;2022-12-07T16:37:18;94706.38;;;1.00;84.49
9538;BME280;4807;48.024;11.726;2022-12-07T16:40:26;94698.91;;;1.05;84.41
9538;BME280;4807;48.024;11.726;2022-12-07T16:43:37;94701.13;;;1.00;84.64
9538;BME280;4807;48.024;11.726;2022-12-07T16:46:45;94698.44;;;0.92;85.16
9538;BME280;4807;48.024;11.726;2022-12-07T16:49:54;94702.25;;;0.98;84.89
9538;BME280;4807;48.024;11.726;2022-12-07T16:53:03;94702.16;;;0.90;84.62
9538;BME280;4807;48.024;11.726;2022-12-07T16:56:14;94694.31;;;0.90;85.45
9538;BME280;4807;48.024;11.726;2022-12-07T16:59:24;94697.84;;;0.98;85.47
9538;BME280;4807;48.024;11.726;2022-12-07T17:02:33;94696.66;;;1.10;84.81
9538;BME280;4807;48.024;11.726;2022-12-07T17:05:43;94700.25;;;1.09;84.36
9538;BME280;4807;48.024;11.726;2022-12-07T17:08:52;94700.25;;;1.09;84.61
9538;BME280;4807;48.024;11.726;2022-12-07T17:12:01;94693.81;;;1.22;84.47
9538;BME280;4807;48.024;11.726;2022-12-07T17:15:12;94705.56;;;1.35;83.36
9538;BME280;4807;48.024;11.726;2022-12-07T17:18:30;94693.22;;;1.28;84.81
9538;BME280;4807;48.024;11.726;2022-12-07T17:21:39;94691.47;;;1.36;84.54
9538;BME280;4807;48.024;11.726;2022-12-07T17:24:47;94692.88;;;1.31;84.40
9538;BME280;4807;48.024;11.726;2022-12-07T17:27:57;94690.25;;;1.31;84.18
9538;BME280;4807;48.024;11.726;2022-12-07T17:31:11;94686.44;;;1.43;84.54